createdAt,value
2022-12-05T00:01:35.211Z,98112.28
2022-12-05T00:04:02.739Z,98110.66
2022-12-05T00:06:29.908Z,98119.09
2022-12-05T00:08:56.824Z,98119.28
2022-12-05T00:11:24.600Z,98121.47
2022-12-05T00:13:52.026Z,98127.56
2022-12-05T00:16:19.364Z,98128.50
2022-12-05T00:18:46.152Z,98124.56
2022-12-05T00:21:13.994Z,98135.50
2022-12-05T00:23:40.622Z,98129.34
2022-12-05T00:26:07.304Z,98123.03
2022-12-05T00:28:34.232Z,98126.81
2022-12-05T00:31:04.805Z,98125.16
2022-12-05T00:33:31.428Z,98130.19
2022-12-05T00:36:04.905Z,98123.25
2022-12-05T00:38:31.382Z,98115.31
2022-12-05T00:41:02.197Z,98125.00
2022-12-05T00:43:28.683Z,98119.16
2022-12-05T00:45:55.266Z,98112.63
2022-12-05T00:48:21.851Z,98108.53
2022-12-05T00:50:48.428Z,98114.84
2022-12-05T00:53:14.922Z,98122.25
2022-12-05T00:55:41.477Z,98126.91
2022-12-05T00:58:07.973Z,98131.31
2022-12-05T01:00:34.557Z,98137.34
2022-12-05T01:03:01.151Z,98131.22
2022-12-05T01:05:27.784Z,98124.50
2022-12-05T01:07:54.368Z,98141.50
2022-12-05T01:10:20.986Z,98149.13
2022-12-05T01:12:47.518Z,98149.63
2022-12-05T01:15:14.104Z,98159.97
2022-12-05T01:17:40.649Z,98164.25
2022-12-05T01:20:07.641Z,98172.00
2022-12-05T01:22:34.173Z,98181.25
2022-12-05T01:25:00.760Z,98184.25
2022-12-05T01:27:27.284Z,98190.44
2022-12-05T01:29:54.531Z,98186.19
2022-12-05T01:32:21.554Z,98192.38
2022-12-05T01:34:48.191Z,98186.22
2022-12-05T01:37:14.781Z,98182.63
2022-12-05T01:39:41.430Z,98194.31
2022-12-05T01:42:07.946Z,98189.53
2022-12-05T01:44:34.557Z,98190.25
2022-12-05T01:47:01.161Z,98189.09
2022-12-05T01:49:27.710Z,98180.00
2022-12-05T01:52:01.614Z,98179.31
2022-12-05T01:54:28.291Z,98172.41
2022-12-05T01:57:01.719Z,98188.69
2022-12-05T01:59:31.848Z,98188.94
2022-12-05T02:01:58.529Z,98182.16
2022-12-05T02:04:25.050Z,98179.06
2022-12-05T02:06:51.615Z,98186.34
2022-12-05T02:09:18.148Z,98186.44
2022-12-05T02:11:47.589Z,98187.66
2022-12-05T02:14:17.128Z,98189.03
2022-12-05T02:16:46.620Z,98189.41
2022-12-05T02:19:15.959Z,98187.38
2022-12-05T02:21:45.335Z,98196.06
2022-12-05T02:24:30.766Z,98200.22
2022-12-05T02:27:00.663Z,98200.94
2022-12-05T02:29:39.118Z,98201.28
2022-12-05T02:32:24.632Z,98201.78
2022-12-05T02:34:55.095Z,98205.34
2022-12-05T02:37:33.002Z,98213.69
2022-12-05T02:40:10.691Z,98219.47
2022-12-05T02:42:55.962Z,98223.50
2022-12-05T02:45:23.370Z,98234.63
2022-12-05T02:47:53.602Z,98232.16
2022-12-05T02:50:23.939Z,98232.34
2022-12-05T02:52:51.174Z,98233.66
2022-12-05T02:55:18.003Z,98242.38
2022-12-05T02:57:45.813Z,98245.91
2022-12-05T03:00:12.627Z,98236.03
2022-12-05T03:02:39.279Z,98249.25
2022-12-05T03:05:17.627Z,98250.22
2022-12-05T03:07:45.176Z,98253.28
2022-12-05T03:10:11.744Z,98247.22
2022-12-05T03:12:39.882Z,98236.16
2022-12-05T03:15:07.690Z,98245.22
2022-12-05T03:17:45.082Z,98233.69
2022-12-05T03:20:14.914Z,98229.75
2022-12-05T03:23:00.931Z,98221.66
2022-12-05T03:25:30.402Z,98229.53
2022-12-05T03:28:00.018Z,98220.00
2022-12-05T03:30:27.575Z,98224.41
2022-12-05T03:32:58.294Z,98216.19
2022-12-05T03:35:43.702Z,98226.91
2022-12-05T03:38:11.697Z,98226.69
2022-12-05T03:40:38.129Z,98232.16
2022-12-05T03:43:12.893Z,98241.44
2022-12-05T03:45:42.145Z,98235.94
2022-12-05T03:48:15.681Z,98235.84
2022-12-05T03:50:43.170Z,98239.28
2022-12-05T03:53:19.520Z,98240.69
2022-12-05T03:55:47.391Z,98233.09
2022-12-05T03:58:15.717Z,98233.09
2022-12-05T04:00:43.162Z,98228.78
2022-12-05T04:03:19.465Z,98236.03
2022-12-05T04:05:59.373Z,98244.16
2022-12-05T04:08:26.911Z,98231.19
2022-12-05T04:10:54.524Z,98232.38
2022-12-05T04:13:25.452Z,98237.59
2022-12-05T04:16:15.338Z,98232.38
2022-12-05T04:18:42.950Z,98238.09
2022-12-05T04:21:28.323Z,98235.47
2022-12-05T04:24:14.109Z,98231.41
2022-12-05T04:26:43.361Z,98230.09
2022-12-05T04:29:17.767Z,98235.47
2022-12-05T04:31:44.406Z,98238.31
2022-12-05T04:34:11.889Z,98236.09
2022-12-05T04:36:50.567Z,98237.63
2022-12-05T04:39:21.399Z,98252.13
2022-12-05T04:41:49.668Z,98246.91
2022-12-05T04:44:16.613Z,98259.72
2022-12-05T04:46:43.831Z,98265.44
2022-12-05T04:49:11.270Z,98262.78
2022-12-05T04:51:38.006Z,98263.69
2022-12-05T04:54:05.903Z,98266.53
2022-12-05T04:56:35.091Z,98273.34
2022-12-05T04:59:01.641Z,98264.50
2022-12-05T05:01:31.297Z,98264.03
2022-12-05T05:04:07.998Z,98264.50
2022-12-05T05:06:36.627Z,98268.31
2022-12-05T05:09:03.128Z,98265.81
2022-12-05T05:11:30.795Z,98265.47
2022-12-05T05:13:57.342Z,98272.13
2022-12-05T05:16:26.952Z,98275.09
2022-12-05T05:18:53.568Z,98265.34
2022-12-05T05:21:21.114Z,98269.25
2022-12-05T05:23:47.771Z,98274.50
2022-12-05T05:26:14.578Z,98275.22
2022-12-05T05:28:41.115Z,98282.97
2022-12-05T05:31:07.819Z,98285.44
2022-12-05T05:33:34.681Z,98298.41
2022-12-05T05:36:11.464Z,98300.69
2022-12-05T05:38:38.609Z,98302.72
2022-12-05T05:41:05.307Z,98295.44
2022-12-05T05:43:31.853Z,98302.84
2022-12-05T05:46:01.384Z,98301.75
2022-12-05T05:48:32.283Z,98315.94
2022-12-05T05:51:02.584Z,98318.69
2022-12-05T05:53:29.165Z,98331.09
2022-12-05T05:55:56.418Z,98318.81
2022-12-05T05:58:23.409Z,98325.00
2022-12-05T06:00:54.039Z,98316.06
2022-12-05T06:03:23.860Z,98317.38
2022-12-05T06:06:06.820Z,98315.22
2022-12-05T06:08:35.471Z,98311.91
2022-12-05T06:11:20.212Z,98308.56
2022-12-05T06:13:49.895Z,98311.56
2022-12-05T06:16:22.030Z,98309.91
2022-12-05T06:18:49.951Z,98314.53
2022-12-05T06:21:17.253Z,98308.94
2022-12-05T06:23:44.521Z,98302.13
2022-12-05T06:26:14.553Z,98306.75
2022-12-05T06:28:41.490Z,98304.97
2022-12-05T06:31:14.358Z,98307.34
2022-12-05T06:33:44.374Z,98311.19
2022-12-05T06:36:18.175Z,98320.47
2022-12-05T06:38:44.770Z,98324.63
2022-12-05T06:41:12.416Z,98339.91
2022-12-05T06:43:38.990Z,98351.31
2022-12-05T06:46:06.510Z,98356.19
2022-12-05T06:48:33.175Z,98352.63
2022-12-05T06:51:00.458Z,98346.44
2022-12-05T06:53:27.285Z,98351.00
2022-12-05T06:55:57.760Z,98354.63
2022-12-05T06:58:24.522Z,98356.09
2022-12-05T07:01:09.742Z,98361.94
2022-12-05T07:03:36.278Z,98355.63
2022-12-05T07:06:03.315Z,98368.97
2022-12-05T07:08:30.021Z,98367.75
2022-12-05T07:10:56.630Z,98356.19
2022-12-05T07:13:23.214Z,98351.53
2022-12-05T07:15:50.027Z,98355.13
2022-12-05T07:18:17.343Z,98357.84
2022-12-05T07:21:10.585Z,98366.56
2022-12-05T07:23:30.958Z,98377.50
2022-12-05T07:26:00.493Z,98390.13
2022-12-05T07:28:27.095Z,98400.28
2022-12-05T07:31:03.211Z,98399.69
2022-12-05T07:33:29.791Z,98399.19
2022-12-05T07:36:03.028Z,98398.00
2022-12-05T07:38:29.614Z,98397.06
2022-12-05T07:41:05.221Z,98406.94
2022-12-05T07:43:37.941Z,98405.88
2022-12-05T07:46:05.266Z,98393.59
2022-12-05T07:48:32.051Z,98396.94
2022-12-05T07:51:01.561Z,98399.06
2022-12-05T07:53:28.382Z,98400.72
2022-12-05T07:55:55.036Z,98399.13
2022-12-05T07:58:21.598Z,98402.63
2022-12-05T08:00:48.188Z,98400.81
2022-12-05T08:03:14.745Z,98402.88
2022-12-05T08:05:41.273Z,98399.44
2022-12-05T08:08:07.966Z,98402.38
2022-12-05T08:10:35.159Z,98402.53
2022-12-05T08:13:01.695Z,98400.88
2022-12-05T08:15:28.276Z,98395.69
2022-12-05T08:17:54.783Z,98408.19
2022-12-05T08:20:21.327Z,98408.78
2022-12-05T08:23:08.233Z,98410.72
2022-12-05T08:25:36.743Z,98422.03
2022-12-05T08:28:03.280Z,98417.38
2022-12-05T08:30:29.815Z,98424.09
2022-12-05T08:32:56.408Z,98423.84
2022-12-05T08:35:23.040Z,98424.31
2022-12-05T08:37:49.610Z,98430.38
2022-12-05T08:40:16.213Z,98441.13
2022-12-05T08:42:42.737Z,98436.00
2022-12-05T08:45:09.746Z,98437.50
2022-12-05T08:47:36.269Z,98435.59
2022-12-05T08:50:02.814Z,98439.75
2022-12-05T08:52:30.033Z,98445.94
2022-12-05T08:54:56.915Z,98455.53
2022-12-05T08:57:23.698Z,98450.91
2022-12-05T08:59:50.187Z,98452.97
2022-12-05T09:02:16.814Z,98450.53
2022-12-05T09:04:43.538Z,98454.34
2022-12-05T09:07:10.101Z,98451.94
2022-12-05T09:09:36.704Z,98454.22
2022-12-05T09:12:03.355Z,98456.81
2022-12-05T09:14:33.180Z,98452.66
2022-12-05T09:17:01.094Z,98455.75
2022-12-05T09:19:28.644Z,98464.56
2022-12-05T09:21:55.550Z,98466.22
2022-12-05T09:24:22.567Z,98472.06
2022-12-05T09:26:49.128Z,98474.81
2022-12-05T09:29:17.956Z,98474.00
2022-12-05T09:31:45.071Z,98485.31
2022-12-05T09:34:13.476Z,98482.22
2022-12-05T09:36:39.992Z,98488.03
2022-12-05T09:39:06.912Z,98488.41
2022-12-05T09:42:01.221Z,98484.22
2022-12-05T09:44:36.686Z,98482.81
2022-12-05T09:47:04.495Z,98488.59
2022-12-05T09:49:31.063Z,98492.78
2022-12-05T09:51:57.652Z,98489.06
2022-12-05T09:54:24.721Z,98486.41
2022-12-05T09:56:51.731Z,98482.50
2022-12-05T09:59:20.467Z,98481.22
2022-12-05T10:01:57.868Z,98492.75
2022-12-05T10:04:24.453Z,98492.91
2022-12-05T10:07:09.520Z,98492.75
2022-12-05T10:09:54.750Z,98494.53
2022-12-05T10:12:37.968Z,98490.66
2022-12-05T10:15:04.521Z,98487.47
2022-12-05T10:17:32.605Z,98492.97
2022-12-05T10:20:00.443Z,98485.91
2022-12-05T10:22:29.084Z,98496.31
2022-12-05T10:24:56.757Z,98499.22
2022-12-05T10:27:28.987Z,98493.50
2022-12-05T10:30:00.218Z,98491.38
2022-12-05T10:32:28.878Z,98491.44
2022-12-05T10:34:55.704Z,98487.09
2022-12-05T10:37:22.916Z,98486.84
2022-12-05T10:39:50.153Z,98475.03
2022-12-05T10:42:17.773Z,98479.84
2022-12-05T10:44:44.623Z,98482.47
2022-12-05T10:47:11.189Z,98482.28
2022-12-05T10:49:38.226Z,98481.94
2022-12-05T10:52:05.568Z,98474.13
2022-12-05T10:54:32.895Z,98473.09
2022-12-05T10:56:59.473Z,98472.31
2022-12-05T10:59:27.149Z,98481.16
2022-12-05T11:01:55.272Z,98477.97
2022-12-05T11:04:23.315Z,98488.56
2022-12-05T11:06:50.595Z,98473.59
2022-12-05T11:09:34.091Z,98480.66
2022-12-05T11:12:14.922Z,98470.78
2022-12-05T11:14:42.970Z,98467.13
2022-12-05T11:17:10.063Z,98466.50
2022-12-05T11:19:37.629Z,98470.84
2022-12-05T11:22:05.903Z,98469.91
2022-12-05T11:24:33.462Z,98471.94
2022-12-05T11:27:01.338Z,98471.25
2022-12-05T11:29:38.516Z,98480.06
2022-12-05T11:32:06.391Z,98467.78
2022-12-05T11:34:38.433Z,98462.69
2022-12-05T11:37:06.902Z,98455.16
2022-12-05T11:39:33.624Z,98453.50
2022-12-05T11:42:13.249Z,98459.88
2022-12-05T11:44:39.867Z,98467.78
2022-12-05T11:47:15.488Z,98464.44
2022-12-05T11:50:01.714Z,98465.47
2022-12-05T11:52:49.588Z,98458.84
2022-12-05T11:55:23.128Z,98458.63
2022-12-05T11:58:02.330Z,98460.66
2022-12-05T12:00:42.660Z,98458.63
2022-12-05T12:03:33.108Z,98457.31
2022-12-05T12:06:03.315Z,98455.53
2022-12-05T12:08:30.554Z,98451.25
2022-12-05T12:10:59.662Z,98458.75
2022-12-05T12:13:29.335Z,98453.31
2022-12-05T12:16:08.757Z,98448.34
2022-12-05T12:18:45.226Z,98448.84
2022-12-05T12:21:27.622Z,98448.94
2022-12-05T12:24:01.334Z,98453.38
2022-12-05T12:26:44.472Z,98449.91
2022-12-05T12:29:26.231Z,98449.19
2022-12-05T12:32:08.017Z,98453.13
2022-12-05T12:34:41.422Z,98451.72
2022-12-05T12:37:14.191Z,98454.19
2022-12-05T12:39:59.358Z,98452.97
2022-12-05T12:42:27.872Z,98451.00
2022-12-05T12:45:13.207Z,98456.13
2022-12-05T12:47:49.130Z,98465.63
2022-12-05T12:50:15.762Z,98452.81
2022-12-05T12:53:00.852Z,98457.41
2022-12-05T12:55:27.316Z,98457.56
2022-12-05T12:58:29.214Z,98451.44
2022-12-05T13:01:14.865Z,98446.56
2022-12-05T13:04:02.859Z,98447.47
2022-12-05T13:06:34.080Z,98440.25
2022-12-05T13:09:02.838Z,98439.72
2022-12-05T13:11:30.061Z,98438.88
2022-12-05T13:13:57.038Z,98441.22
2022-12-05T13:16:33.922Z,98439.97
2022-12-05T13:19:06.093Z,98443.19
2022-12-05T13:21:32.800Z,98437.88
2022-12-05T13:24:03.460Z,98443.06
2022-12-05T13:26:31.417Z,98444.72
2022-12-05T13:28:58.473Z,98449.31
2022-12-05T13:31:41.358Z,98445.41
2022-12-05T13:34:39.711Z,98438.19
2022-12-05T13:37:36.358Z,98443.16
2022-12-05T13:40:22.083Z,98447.88
2022-12-05T13:42:52.039Z,98442.00
2022-12-05T13:45:19.568Z,98447.50
2022-12-05T13:48:01.634Z,98450.34
2022-12-05T13:50:51.726Z,98450.91
2022-12-05T13:53:30.661Z,98449.72
2022-12-05T13:55:59.091Z,98456.69
2022-12-05T13:58:25.678Z,98459.13
2022-12-05T14:00:52.451Z,98461.03
2022-12-05T14:03:21.967Z,98455.78
2022-12-05T14:05:52.276Z,98462.03
2022-12-05T14:08:31.511Z,98464.53
2022-12-05T14:10:57.979Z,98469.97
2022-12-05T14:13:25.401Z,98465.50
2022-12-05T14:15:52.197Z,98480.06
2022-12-05T14:18:20.816Z,98475.97
2022-12-05T14:20:47.329Z,98481.56
2022-12-05T14:23:22.717Z,98476.88
2022-12-05T14:25:59.621Z,98475.44
2022-12-05T14:28:37.156Z,98475.41
2022-12-05T14:31:22.508Z,98479.94
2022-12-05T14:34:07.890Z,98481.88
2022-12-05T14:36:34.511Z,98486.94
2022-12-05T14:39:01.108Z,98489.94
2022-12-05T14:41:31.428Z,98490.28
2022-12-05T14:43:57.940Z,98487.56
2022-12-05T14:46:29.219Z,98484.50
2022-12-05T14:48:56.311Z,98491.81
2022-12-05T14:51:35.113Z,98501.09
2022-12-05T14:54:05.198Z,98499.91
2022-12-05T14:56:31.865Z,98492.25
2022-12-05T14:59:01.380Z,98491.56
2022-12-05T15:01:54.397Z,98491.56
2022-12-05T15:04:24.221Z,98493.34
2022-12-05T15:06:55.007Z,98495.53
2022-12-05T15:09:41.830Z,98494.34
2022-12-05T15:12:20.410Z,98495.19
2022-12-05T15:14:48.451Z,98489.28
2022-12-05T15:17:16.534Z,98487.56
2022-12-05T15:19:47.650Z,98485.19
2022-12-05T15:22:14.586Z,98498.78
2022-12-05T15:24:41.239Z,98490.44
2022-12-05T15:27:11.627Z,98487.53
2022-12-05T15:29:38.710Z,98479.72
2022-12-05T15:32:08.324Z,98487.50
2022-12-05T15:34:34.834Z,98488.44
2022-12-05T15:37:19.977Z,98491.91
2022-12-05T15:39:50.523Z,98502.19
2022-12-05T15:42:17.017Z,98509.84
2022-12-05T15:44:43.564Z,98509.88
2022-12-05T15:47:18.540Z,98514.66
2022-12-05T15:49:45.057Z,98513.72
2022-12-05T15:52:31.951Z,98516.47
2022-12-05T15:54:59.643Z,98518.13
2022-12-05T15:57:33.431Z,98521.34
2022-12-05T16:00:05.222Z,98532.47
2022-12-05T16:02:44.227Z,98527.81
2022-12-05T16:05:21.323Z,98529.03
2022-12-05T16:07:48.396Z,98528.69
2022-12-05T16:10:15.620Z,98524.03
2022-12-05T16:12:42.147Z,98526.06
2022-12-05T16:15:18.855Z,98528.91
2022-12-05T16:17:46.370Z,98525.31
2022-12-05T16:20:15.994Z,98525.91
2022-12-05T16:22:46.051Z,98530.19
2022-12-05T16:25:14.014Z,98533.75
2022-12-05T16:27:41.020Z,98537.53
2022-12-05T16:30:11.790Z,98545.41
2022-12-05T16:32:38.914Z,98547.34
2022-12-05T16:35:23.558Z,98554.81
2022-12-05T16:38:02.275Z,98557.53
2022-12-05T16:40:29.039Z,98556.03
2022-12-05T16:43:05.685Z,98565.19
2022-12-05T16:45:42.532Z,98557.09
2022-12-05T16:48:16.512Z,98559.38
2022-12-05T16:50:43.388Z,98557.94
2022-12-05T16:53:09.903Z,98556.78
2022-12-05T16:55:39.744Z,98541.78
2022-12-05T16:58:06.818Z,98546.19
2022-12-05T17:00:33.394Z,98545.00
2022-12-05T17:03:25.861Z,98549.06
2022-12-05T17:05:46.537Z,98556.94
2022-12-05T17:08:13.475Z,98554.81
2022-12-05T17:10:40.144Z,98552.91
2022-12-05T17:13:06.745Z,98555.03
2022-12-05T17:15:33.332Z,98556.50
2022-12-05T17:18:00.096Z,98547.41
2022-12-05T17:20:26.920Z,98546.47
2022-12-05T17:22:53.692Z,98549.94
2022-12-05T17:25:23.369Z,98554.34
2022-12-05T17:27:49.907Z,98549.69
2022-12-05T17:30:16.560Z,98545.50
2022-12-05T17:32:43.917Z,98549.69
2022-12-05T17:35:15.339Z,98543.22
2022-12-05T17:37:41.902Z,98544.41
2022-12-05T17:40:08.920Z,98545.13
2022-12-05T17:42:35.465Z,98547.66
2022-12-05T17:45:02.357Z,98547.16
2022-12-05T17:47:28.878Z,98544.09
2022-12-05T17:49:55.917Z,98542.28
2022-12-05T17:52:22.909Z,98545.25
2022-12-05T17:54:49.553Z,98557.69
2022-12-05T17:57:16.109Z,98543.97
2022-12-05T17:59:42.713Z,98549.91
2022-12-05T18:02:09.871Z,98542.41
2022-12-05T18:04:37.060Z,98544.91
2022-12-05T18:07:03.582Z,98538.94
2022-12-05T18:09:31.057Z,98547.88
2022-12-05T18:11:57.692Z,98550.16
2022-12-05T18:14:25.831Z,98550.66
2022-12-05T18:16:52.380Z,98554.22
2022-12-05T18:19:18.967Z,98545.03
2022-12-05T18:24:12.990Z,98543.59
2022-12-05T18:26:39.535Z,98546.31
2022-12-05T18:29:06.039Z,98547.88
2022-12-05T18:31:32.691Z,98545.88
2022-12-05T18:33:59.338Z,98554.44
2022-12-05T18:36:25.969Z,98552.66
2022-12-05T18:38:53.972Z,98552.41
2022-12-05T18:41:21.046Z,98558.38
2022-12-05T18:43:47.602Z,98555.88
2022-12-05T18:46:14.241Z,98557.28
2022-12-05T18:48:44.878Z,98567.59
2022-12-05T18:51:15.184Z,98574.19
2022-12-05T18:53:42.705Z,98574.44
2022-12-05T18:56:26.022Z,98570.28
2022-12-05T18:58:59.199Z,98571.41
2022-12-05T19:01:26.410Z,98579.75
2022-12-05T19:03:53.171Z,98579.59
2022-12-05T19:06:21.175Z,98570.53
2022-12-05T19:08:48.105Z,98574.28
2022-12-05T19:11:15.671Z,98570.03
2022-12-05T19:13:42.701Z,98575.06
2022-12-05T19:16:11.412Z,98584.25
2022-12-05T19:18:38.103Z,98580.06
2022-12-05T19:21:04.736Z,98579.59
2022-12-05T19:23:32.398Z,98580.59
2022-12-05T19:26:02.810Z,98581.56
2022-12-05T19:28:29.299Z,98584.41
2022-12-05T19:31:14.578Z,98587.13
2022-12-05T19:33:41.905Z,98589.50
2022-12-05T19:36:13.579Z,98596.31
2022-12-05T19:38:41.022Z,98593.59
2022-12-05T19:41:08.424Z,98591.25
2022-12-05T19:43:35.310Z,98595.50
2022-12-05T19:46:16.324Z,98595.44
2022-12-05T19:48:43.144Z,98591.91
2022-12-05T19:51:09.698Z,98588.72
2022-12-05T19:53:37.498Z,98585.84
2022-12-05T19:56:08.934Z,98586.91
2022-12-05T19:58:36.168Z,98588.47
2022-12-05T20:01:08.865Z,98591.22
2022-12-05T20:03:35.865Z,98590.66
2022-12-05T20:06:02.419Z,98594.00
2022-12-05T20:08:29.002Z,98587.66
2022-12-05T20:10:55.593Z,98597.19
2022-12-05T20:13:45.872Z,98598.16
2022-12-05T20:16:09.789Z,98598.06
2022-12-05T20:18:37.701Z,98598.16
2022-12-05T20:21:04.823Z,98585.41
2022-12-05T20:23:31.806Z,98585.78
2022-12-05T20:26:02.574Z,98589.47
2022-12-05T20:28:29.458Z,98587.66
2022-12-05T20:31:05.426Z,98591.84
2022-12-05T20:33:32.078Z,98588.50
2022-12-05T20:36:08.948Z,98591.34
2022-12-05T20:38:35.941Z,98587.75
2022-12-05T20:41:03.681Z,98588.50
2022-12-05T20:43:30.311Z,98596.03
2022-12-05T20:45:56.964Z,98600.31
2022-12-05T20:48:26.144Z,98600.03
2022-12-05T20:50:54.126Z,98592.56
2022-12-05T20:53:21.833Z,98589.56
2022-12-05T20:55:48.459Z,98596.38
2022-12-05T20:58:15.052Z,98596.03
2022-12-05T21:00:43.730Z,98588.66
2022-12-05T21:03:15.623Z,98589.56
2022-12-05T21:05:43.691Z,98595.06
2022-12-05T21:08:10.512Z,98596.03
2022-12-05T21:10:37.485Z,98593.97
2022-12-05T21:13:05.185Z,98593.41
2022-12-05T21:15:31.739Z,98582.53
2022-12-05T21:17:58.235Z,98590.88
2022-12-05T21:20:24.939Z,98586.22
2022-12-05T21:22:51.675Z,98592.94
2022-12-05T21:25:18.416Z,98589.72
2022-12-05T21:27:45.270Z,98576.50
2022-12-05T21:30:11.947Z,98594.09
2022-12-05T21:32:38.605Z,98585.78
2022-12-05T21:35:05.716Z,98583.97
2022-12-05T21:37:32.234Z,98578.09
2022-12-05T21:39:59.083Z,98582.75
2022-12-05T21:42:25.693Z,98583.94
2022-12-05T21:44:52.198Z,98589.13
2022-12-05T21:47:18.771Z,98595.56
2022-12-05T21:49:45.452Z,98579.72
2022-12-05T21:52:11.918Z,98577.81
2022-12-05T21:54:38.478Z,98581.44
2022-12-05T21:57:05.014Z,98576.66
2022-12-05T21:59:32.722Z,98582.22
2022-12-05T22:01:59.559Z,98583.63
2022-12-05T22:04:26.173Z,98585.19
2022-12-05T22:06:52.696Z,98585.94
2022-12-05T22:09:19.280Z,98582.56
2022-12-05T22:11:46.021Z,98583.91
2022-12-05T22:14:12.534Z,98588.66
2022-12-05T22:16:39.140Z,98582.25
2022-12-05T22:19:05.736Z,98581.19
2022-12-05T22:21:34.337Z,98585.22
2022-12-05T22:24:01.057Z,98583.47
2022-12-05T22:26:27.545Z,98581.91
2022-12-05T22:28:54.707Z,98582.09
2022-12-05T22:31:21.702Z,98575.09
2022-12-05T22:33:48.556Z,98583.56
2022-12-05T22:36:16.274Z,98581.91
2022-12-05T22:38:44.033Z,98575.47
2022-12-05T22:41:14.647Z,98573.56
2022-12-05T22:43:41.653Z,98576.28
2022-12-05T22:46:09.139Z,98577.13
2022-12-05T22:48:35.867Z,98578.41
2022-12-05T22:51:03.035Z,98572.34
2022-12-05T22:53:30.569Z,98567.72
2022-12-05T22:56:05.458Z,98566.44
2022-12-05T22:58:32.058Z,98564.81
2022-12-05T23:00:58.879Z,98560.88
2022-12-05T23:03:25.603Z,98556.47
2022-12-05T23:05:52.414Z,98561.84
2022-12-05T23:08:19.044Z,98553.97
2022-12-05T23:10:45.617Z,98556.25
2022-12-05T23:13:12.384Z,98556.59
2022-12-05T23:15:39.159Z,98556.47
2022-12-05T23:18:05.773Z,98560.50
2022-12-05T23:20:32.813Z,98561.56
2022-12-05T23:22:59.415Z,98558.47
2022-12-05T23:25:26.009Z,98558.22
2022-12-05T23:27:52.647Z,98557.22
2022-12-05T23:30:19.255Z,98557.06
2022-12-05T23:32:45.785Z,98552.06
2022-12-05T23:35:12.440Z,98548.34
2022-12-05T23:37:39.706Z,98557.75
2022-12-05T23:40:06.510Z,98554.69
2022-12-05T23:42:33.008Z,98548.84
2022-12-05T23:44:59.583Z,98550.34
2022-12-05T23:47:26.149Z,98547.00
2022-12-05T23:49:52.710Z,98552.84
2022-12-05T23:52:19.352Z,98548.78
2022-12-05T23:54:45.952Z,98553.94
2022-12-05T23:57:17.399Z,98552.06
2022-12-05T23:59:44.450Z,98547.44
